createdAt,value
2023-01-03T00:01:56.892Z,102050.81
2023-01-03T00:04:23.830Z,102048.59
2023-01-03T00:06:51.766Z,102039.13
2023-01-03T00:09:20.385Z,102037.75
2023-01-03T00:11:58.787Z,102037.50
2023-01-03T00:14:27.070Z,102018.78
2023-01-03T00:16:56.575Z,102026.03
2023-01-03T00:19:24.354Z,102014.88
2023-01-03T00:21:51.609Z,102019.63
2023-01-03T00:24:18.588Z,102010.41
2023-01-03T00:26:45.727Z,102016.25
2023-01-03T00:29:12.896Z,102005.31
2023-01-03T00:31:40.141Z,102015.66
2023-01-03T00:34:07.382Z,102018.72
2023-01-03T00:36:34.724Z,102021.50
2023-01-03T00:39:01.509Z,102027.09
2023-01-03T00:41:28.462Z,102022.88
2023-01-03T00:43:55.263Z,102019.22
2023-01-03T00:46:22.414Z,102014.47
2023-01-03T00:48:49.723Z,102007.25
2023-01-03T00:51:18.090Z,102002.47
2023-01-03T00:53:46.645Z,102003.59
2023-01-03T00:56:14.858Z,102000.81
2023-01-03T00:58:42.021Z,101996.31
2023-01-03T01:01:10.556Z,101988.19
2023-01-03T01:03:38.216Z,101987.34
2023-01-03T01:06:14.583Z,101992.06
2023-01-03T01:08:41.961Z,101988.47
2023-01-03T01:11:09.121Z,101992.34
2023-01-03T01:13:36.005Z,101994.31
2023-01-03T01:16:07.806Z,101992.59
2023-01-03T01:18:35.208Z,101990.91
2023-01-03T01:21:06.484Z,101993.72
2023-01-03T01:23:35.143Z,102005.16
2023-01-03T01:26:03.307Z,101997.88
2023-01-03T01:28:30.326Z,101998.13
2023-01-03T01:30:59.438Z,101991.69
2023-01-03T01:33:26.282Z,101989.19
2023-01-03T01:35:53.337Z,101989.44
2023-01-03T01:38:20.540Z,101984.94
2023-01-03T01:40:47.641Z,101980.47
2023-01-03T01:43:26.466Z,101981.59
2023-01-03T01:45:53.419Z,101976.25
2023-01-03T01:48:20.449Z,101979.28
2023-01-03T01:50:50.092Z,101977.63
2023-01-03T01:53:22.431Z,101970.34
2023-01-03T01:55:54.051Z,101961.13
2023-01-03T01:58:22.141Z,101966.97
2023-01-03T02:00:49.096Z,101962.47
2023-01-03T02:03:15.979Z,101965.28
2023-01-03T02:05:46.441Z,101975.03
2023-01-03T02:08:13.486Z,101976.13
2023-01-03T02:10:51.347Z,101978.34
2023-01-03T02:13:21.361Z,101978.59
2023-01-03T02:15:49.527Z,101971.31
2023-01-03T02:18:17.654Z,101964.03
2023-01-03T02:20:44.803Z,101964.31
2023-01-03T02:23:21.747Z,101973.78
2023-01-03T02:25:57.539Z,101975.72
2023-01-03T02:28:27.649Z,101977.69
2023-01-03T02:30:57.846Z,101972.38
2023-01-03T02:33:32.013Z,101969.84
2023-01-03T02:35:59.140Z,101969.84
2023-01-03T02:38:35.208Z,101971.78
2023-01-03T02:41:09.232Z,101968.38
2023-01-03T02:43:46.862Z,101963.94
2023-01-03T02:46:14.399Z,101968.91
2023-01-03T02:48:41.428Z,101963.34
2023-01-03T02:51:13.491Z,101961.63
2023-01-03T02:53:43.778Z,101958.00
2023-01-03T02:56:12.963Z,101956.59
2023-01-03T02:58:40.906Z,101961.31
2023-01-03T03:01:09.109Z,101955.16
2023-01-03T03:03:38.322Z,101956.25
2023-01-03T03:06:14.502Z,101956.25
2023-01-03T03:08:43.832Z,101945.34
2023-01-03T03:11:20.352Z,101944.78
2023-01-03T03:13:49.449Z,101948.66
2023-01-03T03:16:17.593Z,101943.34
2023-01-03T03:18:53.555Z,101945.28
2023-01-03T03:21:30.463Z,101930.75
2023-01-03T03:24:09.432Z,101925.44
2023-01-03T03:26:39.820Z,101924.56
2023-01-03T03:29:12.366Z,101924.00
2023-01-03T03:31:41.314Z,101921.47
2023-01-03T03:34:11.942Z,101914.19
2023-01-03T03:36:38.976Z,101914.19
2023-01-03T03:39:07.203Z,101913.63
2023-01-03T03:41:48.416Z,101917.22
2023-01-03T03:44:25.372Z,101913.03
2023-01-03T03:46:55.842Z,101917.75
2023-01-03T03:49:33.406Z,101921.66
2023-01-03T03:52:01.881Z,101919.97
2023-01-03T03:54:29.983Z,101913.53
2023-01-03T03:57:00.744Z,101919.34
2023-01-03T03:59:28.411Z,101914.00
2023-01-03T04:01:56.629Z,101910.66
2023-01-03T04:04:27.601Z,101920.97
2023-01-03T04:06:54.861Z,101913.69
2023-01-03T04:09:21.831Z,101915.63
2023-01-03T04:11:48.727Z,101912.00
2023-01-03T04:14:15.644Z,101906.69
2023-01-03T04:16:42.715Z,101905.00
2023-01-03T04:19:09.581Z,101902.47
2023-01-03T04:21:36.950Z,101906.34
2023-01-03T04:24:04.805Z,101902.75
2023-01-03T04:26:31.665Z,101903.00
2023-01-03T04:28:58.562Z,101903.00
2023-01-03T04:31:25.427Z,101909.66
2023-01-03T04:33:54.271Z,101907.97
2023-01-03T04:36:21.515Z,101897.34
2023-01-03T04:38:48.731Z,101902.91
2023-01-03T04:41:15.648Z,101902.91
2023-01-03T04:43:52.383Z,101905.69
2023-01-03T04:46:19.526Z,101907.97
2023-01-03T04:48:46.508Z,101906.88
2023-01-03T04:51:13.623Z,101901.03
2023-01-03T04:53:40.566Z,101907.47
2023-01-03T04:56:07.627Z,101912.00
2023-01-03T04:58:34.603Z,101902.00
2023-01-03T05:01:02.401Z,101901.03
2023-01-03T05:03:30.012Z,101895.25
2023-01-03T05:06:00.424Z,101896.44
2023-01-03T05:08:27.330Z,101900.13
2023-01-03T05:10:54.250Z,101888.19
2023-01-03T05:13:21.284Z,101891.28
2023-01-03T05:15:48.263Z,101891.63
2023-01-03T05:18:15.188Z,101886.34
2023-01-03T05:20:51.345Z,101887.50
2023-01-03T05:23:28.364Z,101888.66
2023-01-03T05:25:55.242Z,101890.09
2023-01-03T05:28:23.390Z,101885.38
2023-01-03T05:30:50.362Z,101889.31
2023-01-03T05:33:17.225Z,101886.28
2023-01-03T05:35:46.568Z,101879.56
2023-01-03T05:38:13.733Z,101883.50
2023-01-03T05:40:41.870Z,101881.56
2023-01-03T05:43:08.877Z,101889.69
2023-01-03T05:45:36.650Z,101900.63
2023-01-03T05:48:03.906Z,101894.75
2023-01-03T05:50:30.788Z,101897.53
2023-01-03T05:52:58.024Z,101896.44
2023-01-03T05:55:25.031Z,101894.50
2023-01-03T05:57:52.423Z,101889.75
2023-01-03T06:00:19.786Z,101893.63
2023-01-03T06:02:46.791Z,101882.47
2023-01-03T06:05:13.610Z,101890.00
2023-01-03T06:07:40.464Z,101890.00
2023-01-03T06:10:07.812Z,101880.78
2023-01-03T06:12:34.641Z,101886.38
2023-01-03T06:15:01.546Z,101886.38
2023-01-03T06:17:37.459Z,101886.38
2023-01-03T06:20:04.653Z,101882.72
2023-01-03T06:22:31.532Z,101871.56
2023-01-03T06:24:58.549Z,101875.19
2023-01-03T06:27:25.367Z,101878.00
2023-01-03T06:29:52.190Z,101878.00
2023-01-03T06:32:19.083Z,101885.25
2023-01-03T06:34:46.004Z,101885.53
2023-01-03T06:37:12.985Z,101885.53
2023-01-03T06:39:39.803Z,101890.28
2023-01-03T06:42:16.343Z,101883.00
2023-01-03T06:44:43.190Z,101883.84
2023-01-03T06:47:20.342Z,101876.59
2023-01-03T06:49:56.404Z,101882.16
2023-01-03T06:52:32.353Z,101877.69
2023-01-03T06:54:59.432Z,101874.88
2023-01-03T06:57:27.431Z,101881.31
2023-01-03T06:59:54.980Z,101874.03
2023-01-03T07:02:22.117Z,101871.53
2023-01-03T07:04:49.211Z,101869.84
2023-01-03T07:07:16.171Z,101864.25
2023-01-03T07:09:43.027Z,101881.84
2023-01-03T07:12:19.425Z,101870.09
2023-01-03T07:14:46.317Z,101871.19
2023-01-03T07:17:16.683Z,101872.03
2023-01-03T07:19:43.482Z,101872.31
2023-01-03T07:22:10.462Z,101874.25
2023-01-03T07:24:37.263Z,101880.94
2023-01-03T07:27:04.076Z,101871.72
2023-01-03T07:29:30.922Z,101867.25
2023-01-03T07:31:59.362Z,101864.44
2023-01-03T07:34:26.383Z,101863.59
2023-01-03T07:36:53.410Z,101864.97
2023-01-03T07:39:20.271Z,101856.59
2023-01-03T07:41:56.804Z,101865.81
2023-01-03T07:44:23.647Z,101862.19
2023-01-03T07:46:50.756Z,101857.47
2023-01-03T07:49:17.683Z,101854.38
2023-01-03T07:51:44.522Z,101854.97
2023-01-03T07:54:11.596Z,101866.19
2023-01-03T07:56:38.524Z,101867.09
2023-01-03T07:59:05.423Z,101860.44
2023-01-03T08:01:33.977Z,101863.28
2023-01-03T08:04:00.890Z,101866.13
2023-01-03T08:06:27.805Z,101857.81
2023-01-03T08:09:06.330Z,101858.13
2023-01-03T08:11:43.743Z,101857.59
2023-01-03T08:14:11.854Z,101854.00
2023-01-03T08:16:38.772Z,101857.13
2023-01-03T08:19:05.702Z,101848.44
2023-01-03T08:21:35.662Z,101856.31
2023-01-03T08:24:02.563Z,101854.97
2023-01-03T08:26:29.465Z,101851.91
2023-01-03T08:28:56.303Z,101850.50
2023-01-03T08:31:23.839Z,101847.72
2023-01-03T08:33:55.683Z,101850.00
2023-01-03T08:36:23.973Z,101845.25
2023-01-03T08:38:55.512Z,101852.25
2023-01-03T08:41:23.705Z,101854.19
2023-01-03T08:43:50.641Z,101860.38
2023-01-03T08:46:18.369Z,101855.63
2023-01-03T08:48:45.511Z,101863.19
2023-01-03T08:51:12.464Z,101851.16
2023-01-03T08:53:39.403Z,101856.75
2023-01-03T08:56:06.685Z,101854.78
2023-01-03T08:58:34.321Z,101841.66
2023-01-03T09:01:01.992Z,101847.25
2023-01-03T09:03:29.038Z,101844.47
2023-01-03T09:05:59.574Z,101832.69
2023-01-03T09:08:27.955Z,101838.28
2023-01-03T09:10:55.044Z,101840.22
2023-01-03T09:13:21.869Z,101840.50
2023-01-03T09:15:48.779Z,101846.06
2023-01-03T09:18:15.885Z,101842.47
2023-01-03T09:20:42.921Z,101836.28
2023-01-03T09:23:09.782Z,101848.31
2023-01-03T09:25:37.492Z,101841.03
2023-01-03T09:28:04.822Z,101835.44
2023-01-03T09:30:33.279Z,101840.19
2023-01-03T09:33:00.169Z,101835.69
2023-01-03T09:35:27.128Z,101830.41
2023-01-03T09:37:54.032Z,101845.22
2023-01-03T09:40:21.068Z,101835.13
2023-01-03T09:42:57.509Z,101836.00
2023-01-03T09:45:27.625Z,101837.09
2023-01-03T09:47:55.204Z,101831.75
2023-01-03T09:50:35.152Z,101832.84
2023-01-03T09:53:30.371Z,101828.38
2023-01-03T09:56:08.633Z,101820.25
2023-01-03T09:58:45.384Z,101813.81
2023-01-03T10:01:31.570Z,101826.94
2023-01-03T10:04:07.003Z,101828.06
2023-01-03T10:06:44.019Z,101816.06
2023-01-03T10:09:20.612Z,101826.63
2023-01-03T10:11:56.642Z,101816.56
2023-01-03T10:14:32.628Z,101824.09
2023-01-03T10:17:06.208Z,101819.06
2023-01-03T10:19:34.372Z,101824.63
2023-01-03T10:22:10.560Z,101817.66
2023-01-03T10:24:43.618Z,101821.53
2023-01-03T10:27:16.354Z,101824.59
2023-01-03T10:29:44.009Z,101812.56
2023-01-03T10:32:21.238Z,101808.13
2023-01-03T10:35:01.951Z,101809.22
2023-01-03T10:37:29.427Z,101805.84
2023-01-03T10:40:05.582Z,101804.16
2023-01-03T10:42:34.521Z,101803.59
2023-01-03T10:45:02.685Z,101800.19
2023-01-03T10:47:29.645Z,101805.78
2023-01-03T10:50:00.880Z,101802.44
2023-01-03T10:52:33.504Z,101800.75
2023-01-03T10:55:01.768Z,101793.47
2023-01-03T10:57:39.883Z,101784.53
2023-01-03T11:00:26.983Z,101786.47
2023-01-03T11:02:54.825Z,101784.19
2023-01-03T11:05:23.307Z,101787.84
2023-01-03T11:07:55.022Z,101778.06
2023-01-03T11:10:22.789Z,101771.88
2023-01-03T11:12:49.663Z,101762.66
2023-01-03T11:15:25.564Z,101761.00
2023-01-03T11:17:52.980Z,101748.13
2023-01-03T11:20:20.415Z,101754.25
2023-01-03T11:22:54.665Z,101747.84
2023-01-03T11:25:30.586Z,101750.03
2023-01-03T11:28:11.939Z,101738.03
2023-01-03T11:30:43.899Z,101723.50
2023-01-03T11:33:12.403Z,101736.88
2023-01-03T11:35:39.502Z,101735.47
2023-01-03T11:38:06.517Z,101720.91
2023-01-03T11:40:42.550Z,101720.06
2023-01-03T11:43:18.602Z,101718.38
2023-01-03T11:45:52.940Z,101706.66
2023-01-03T11:48:29.720Z,101701.63
2023-01-03T11:50:56.881Z,101696.03
2023-01-03T11:53:33.616Z,101689.59
2023-01-03T11:56:00.703Z,101685.97
2023-01-03T11:58:39.663Z,101691.81
2023-01-03T12:01:16.629Z,101669.75
2023-01-03T12:03:44.961Z,101677.56
2023-01-03T12:06:21.338Z,101664.69
2023-01-03T12:08:59.534Z,101668.88
2023-01-03T12:11:35.648Z,101656.59
2023-01-03T12:14:02.745Z,101663.28
2023-01-03T12:16:29.919Z,101661.84
2023-01-03T12:19:12.015Z,101650.69
2023-01-03T12:21:43.577Z,101654.59
2023-01-03T12:24:18.585Z,101649.28
2023-01-03T12:26:51.398Z,101640.06
2023-01-03T12:29:24.572Z,101646.75
2023-01-03T12:31:54.194Z,101647.88
2023-01-03T12:34:30.514Z,101626.66
2023-01-03T12:36:57.580Z,101637.00
2023-01-03T12:39:33.080Z,101624.38
2023-01-03T12:42:04.813Z,101628.28
2023-01-03T12:44:36.667Z,101616.56
2023-01-03T12:47:05.882Z,101617.66
2023-01-03T12:49:38.642Z,101613.19
2023-01-03T12:52:05.520Z,101603.16
2023-01-03T12:54:42.796Z,101607.91
2023-01-03T12:57:12.893Z,101611.53
2023-01-03T12:59:39.943Z,101612.88
2023-01-03T13:02:17.489Z,101606.47
2023-01-03T13:04:45.432Z,101599.19
2023-01-03T13:07:14.906Z,101603.97
2023-01-03T13:09:44.280Z,101585.53
2023-01-03T13:12:14.966Z,101587.72
2023-01-03T13:14:51.968Z,101596.94
2023-01-03T13:17:20.389Z,101590.81
2023-01-03T13:19:56.702Z,101588.25
2023-01-03T13:22:34.145Z,101596.59
2023-01-03T13:25:10.584Z,101598.56
2023-01-03T13:27:39.382Z,101580.13
2023-01-03T13:30:15.613Z,101573.69
2023-01-03T13:32:51.568Z,101569.25
2023-01-03T13:35:20.570Z,101580.41
2023-01-03T13:37:48.836Z,101564.78
2023-01-03T13:40:51.975Z,101561.16
2023-01-03T13:43:16.084Z,101550.25
2023-01-03T13:45:43.147Z,101547.47
2023-01-03T13:48:16.343Z,101547.75
2023-01-03T13:51:02.664Z,101544.09
2023-01-03T13:53:30.475Z,101537.69
2023-01-03T13:55:58.900Z,101540.72
2023-01-03T13:58:35.625Z,101526.78
2023-01-03T14:01:06.535Z,101519.53
2023-01-03T14:03:40.751Z,101511.16
2023-01-03T14:06:15.582Z,101497.50
2023-01-03T14:08:51.585Z,101506.97
2023-01-03T14:11:27.717Z,101496.66
2023-01-03T14:13:55.582Z,101494.13
2023-01-03T14:16:28.188Z,101489.38
2023-01-03T14:19:01.788Z,101484.91
2023-01-03T14:21:36.965Z,101484.06
2023-01-03T14:24:04.542Z,101486.00
2023-01-03T14:26:32.001Z,101498.31
2023-01-03T14:28:58.827Z,101492.97
2023-01-03T14:31:27.625Z,101502.19
2023-01-03T14:33:59.796Z,101486.56
2023-01-03T14:36:27.503Z,101487.66
2023-01-03T14:38:55.637Z,101486.81
2023-01-03T14:41:27.307Z,101474.84
2023-01-03T14:44:03.622Z,101462.84
2023-01-03T14:46:31.888Z,101472.31
2023-01-03T14:49:03.454Z,101463.09
2023-01-03T14:51:33.194Z,101474.53
2023-01-03T14:54:00.853Z,101471.72
2023-01-03T14:56:28.790Z,101461.72
2023-01-03T14:58:56.128Z,101460.88
2023-01-03T15:01:23.854Z,101449.97
2023-01-03T15:03:52.074Z,101452.75
2023-01-03T15:06:22.204Z,101460.28
2023-01-03T15:08:50.660Z,101449.13
2023-01-03T15:11:23.100Z,101464.16
2023-01-03T15:13:51.362Z,101465.00
2023-01-03T15:16:18.456Z,101462.50
2023-01-03T15:18:46.195Z,101459.72
2023-01-03T15:21:16.793Z,101458.03
2023-01-03T15:23:44.924Z,101468.34
2023-01-03T15:26:21.623Z,101473.34
2023-01-03T15:28:51.682Z,101483.38
2023-01-03T15:31:27.577Z,101478.06
2023-01-03T15:34:02.863Z,101459.41
2023-01-03T15:36:32.170Z,101464.41
2023-01-03T15:38:59.525Z,101452.41
2023-01-03T15:41:38.471Z,101446.00
2023-01-03T15:44:06.602Z,101446.00
2023-01-03T15:46:33.723Z,101440.69
2023-01-03T15:49:01.038Z,101447.38
2023-01-03T15:51:28.055Z,101446.53
2023-01-03T15:53:54.967Z,101443.75
2023-01-03T15:56:24.755Z,101442.06
2023-01-03T15:58:53.825Z,101460.75
2023-01-03T16:01:21.158Z,101440.38
2023-01-03T16:03:48.693Z,101452.38
2023-01-03T16:06:16.781Z,101436.75
2023-01-03T16:08:44.229Z,101442.31
2023-01-03T16:11:18.146Z,101431.47
2023-01-03T16:13:49.718Z,101420.31
2023-01-03T16:16:19.737Z,101412.75
2023-01-03T16:18:46.714Z,101404.69
2023-01-03T16:21:14.249Z,101420.56
2023-01-03T16:23:41.495Z,101401.91
2023-01-03T16:26:09.106Z,101400.22
2023-01-03T16:28:35.969Z,101394.91
2023-01-03T16:31:04.656Z,101387.38
2023-01-03T16:33:33.877Z,101395.75
2023-01-03T16:36:01.105Z,101380.13
2023-01-03T16:38:30.290Z,101378.72
2023-01-03T16:40:57.424Z,101378.47
2023-01-03T16:43:25.403Z,101367.56
2023-01-03T16:45:53.511Z,101360.06
2023-01-03T16:48:22.927Z,101358.38
2023-01-03T16:50:52.089Z,101349.16
2023-01-03T16:53:24.082Z,101345.53
2023-01-03T16:55:54.923Z,101343.59
2023-01-03T16:58:24.117Z,101347.22
2023-01-03T17:00:51.688Z,101340.53
2023-01-03T17:03:18.856Z,101347.81
2023-01-03T17:05:46.364Z,101345.56
2023-01-03T17:08:16.525Z,101346.72
2023-01-03T17:10:47.038Z,101336.69
2023-01-03T17:13:23.587Z,101332.84
2023-01-03T17:15:50.543Z,101342.91
2023-01-03T17:18:19.421Z,101339.31
2023-01-03T17:20:49.156Z,101337.66
2023-01-03T17:23:16.185Z,101329.34
2023-01-03T17:25:43.113Z,101329.63
2023-01-03T17:28:10.712Z,101325.16
2023-01-03T17:30:38.037Z,101320.19
2023-01-03T17:33:04.920Z,101321.31
2023-01-03T17:35:31.959Z,101319.94
2023-01-03T17:38:24.671Z,101312.16
2023-01-03T17:40:46.790Z,101306.00
2023-01-03T17:43:17.811Z,101303.50
2023-01-03T17:45:54.638Z,101304.94
2023-01-03T17:48:31.429Z,101297.94
2023-01-03T17:50:59.128Z,101294.91
2023-01-03T17:53:26.327Z,101275.91
2023-01-03T17:55:53.256Z,101300.75
2023-01-03T17:58:29.209Z,101291.28
2023-01-03T18:00:56.137Z,101285.44
2023-01-03T18:03:23.225Z,101282.34
2023-01-03T18:05:50.193Z,101279.28
2023-01-03T18:08:19.602Z,101292.13
2023-01-03T18:10:47.621Z,101275.41
2023-01-03T18:13:24.531Z,101271.47
2023-01-03T18:15:52.032Z,101268.69
2023-01-03T18:18:19.926Z,101271.19
2023-01-03T18:20:47.050Z,101271.19
2023-01-03T18:23:23.676Z,101264.78
2023-01-03T18:25:51.584Z,101259.78
2023-01-03T18:28:21.863Z,101254.19
2023-01-03T18:30:48.753Z,101251.41
2023-01-03T18:33:16.414Z,101250.28
2023-01-03T18:35:43.847Z,101244.72
2023-01-03T18:38:23.065Z,101247.22
2023-01-03T18:40:50.072Z,101238.84
2023-01-03T18:43:18.227Z,101250.84
2023-01-03T18:45:45.223Z,101227.69
2023-01-03T18:48:15.423Z,101245.25
2023-01-03T18:50:43.163Z,101234.09
2023-01-03T18:53:14.910Z,101229.34
2023-01-03T18:55:41.804Z,101217.34
2023-01-03T18:58:16.624Z,101223.78
2023-01-03T19:00:46.126Z,101209.81
2023-01-03T19:03:20.098Z,101214.56
2023-01-03T19:05:47.045Z,101211.50
2023-01-03T19:08:15.569Z,101209.81
2023-01-03T19:10:42.482Z,101206.19
2023-01-03T19:13:21.802Z,101203.41
2023-01-03T19:15:51.800Z,101199.75
2023-01-03T19:18:18.721Z,101193.34
2023-01-03T19:20:46.752Z,101191.69
2023-01-03T19:23:22.526Z,101191.69
2023-01-03T19:25:49.681Z,101190.84
2023-01-03T19:28:19.425Z,101190.84
2023-01-03T19:30:46.938Z,101185.53
2023-01-03T19:33:15.151Z,101189.16
2023-01-03T19:35:42.696Z,101203.13
2023-01-03T19:38:09.864Z,101187.22
2023-01-03T19:40:37.835Z,101185.28
2023-01-03T19:43:05.114Z,101175.22
2023-01-03T19:45:32.333Z,101173.53
2023-01-03T19:48:00.729Z,101177.44
2023-01-03T19:50:28.865Z,101174.09
2023-01-03T19:52:56.324Z,101160.13
2023-01-03T19:55:26.510Z,101158.19
2023-01-03T19:57:53.855Z,101159.03
2023-01-03T20:00:23.203Z,101151.75
2023-01-03T20:02:52.935Z,101140.00
2023-01-03T20:05:22.237Z,101146.69
2023-01-03T20:07:50.408Z,101142.25
2023-01-03T20:10:19.095Z,101138.88
2023-01-03T20:12:46.771Z,101135.53
2023-01-03T20:15:23.527Z,101142.22
2023-01-03T20:17:50.507Z,101131.59
2023-01-03T20:20:17.880Z,101131.03
2023-01-03T20:25:33.263Z,101126.28
2023-01-03T20:28:00.839Z,101128.78
2023-01-03T20:30:29.492Z,101113.69
2023-01-03T20:32:56.565Z,101122.63
2023-01-03T20:38:12.273Z,101131.00
2023-01-03T20:40:39.558Z,101117.88
2023-01-03T20:43:06.594Z,101118.72
2023-01-03T20:45:34.462Z,101119.84
2023-01-03T20:48:01.540Z,101130.75
2023-01-03T20:50:29.018Z,101117.63
2023-01-03T20:52:57.602Z,101117.63
2023-01-03T20:55:26.054Z,101113.44
2023-01-03T20:58:02.134Z,101111.47
2023-01-03T21:00:33.060Z,101117.34
2023-01-03T21:03:00.255Z,101105.88
2023-01-03T21:05:28.622Z,101119.00
2023-01-03T21:08:05.491Z,101122.66
2023-01-03T21:10:33.812Z,101117.06
2023-01-03T21:13:00.800Z,101111.47
2023-01-03T21:15:27.822Z,101110.91
2023-01-03T21:17:54.872Z,101110.91
2023-01-03T21:20:24.415Z,101115.38
2023-01-03T21:22:51.511Z,101107.28
2023-01-03T21:25:26.968Z,101096.94
2023-01-03T21:27:57.526Z,101108.13
2023-01-03T21:30:25.399Z,101109.78
2023-01-03T21:32:52.425Z,101110.06
2023-01-03T21:35:20.932Z,101103.66
2023-01-03T21:37:48.423Z,101105.59
2023-01-03T21:40:17.082Z,101107.56
2023-01-03T21:42:55.984Z,101111.47
2023-01-03T21:45:28.020Z,101109.50
2023-01-03T21:47:55.101Z,101119.84
2023-01-03T21:50:22.371Z,101114.25
2023-01-03T21:52:50.486Z,101110.63
2023-01-03T21:55:17.844Z,101117.31
2023-01-03T21:57:44.722Z,101113.69
2023-01-03T22:00:12.238Z,101116.22
2023-01-03T22:02:48.796Z,101110.09
2023-01-03T22:05:17.202Z,101112.03
2023-01-03T22:07:43.990Z,101127.13
2023-01-03T22:10:19.213Z,101131.88
2023-01-03T22:12:47.647Z,101108.69
2023-01-03T22:15:14.945Z,101120.13
2023-01-03T22:17:42.245Z,101128.50
2023-01-03T22:20:13.844Z,101130.50
2023-01-03T22:22:41.231Z,101143.03
2023-01-03T22:25:08.800Z,101134.66
2023-01-03T22:27:36.111Z,101135.78
2023-01-03T22:30:04.326Z,101145.00
2023-01-03T22:32:31.184Z,101136.94
2023-01-03T22:34:58.228Z,101136.94
2023-01-03T22:37:25.125Z,101130.78
2023-01-03T22:39:52.424Z,101127.97
2023-01-03T22:42:23.896Z,101127.13
2023-01-03T22:44:50.804Z,101136.63
2023-01-03T22:47:17.831Z,101131.03
2023-01-03T22:49:44.683Z,101134.13
2023-01-03T22:52:11.554Z,101126.03
2023-01-03T22:54:39.537Z,101126.88
2023-01-03T22:57:06.441Z,101124.34
2023-01-03T22:59:34.030Z,101131.34
2023-01-03T23:02:01.162Z,101115.44
2023-01-03T23:04:28.535Z,101130.50
2023-01-03T23:06:55.740Z,101128.84
2023-01-03T23:09:23.064Z,101130.78
2023-01-03T23:12:09.820Z,101118.25
2023-01-03T23:14:36.706Z,101130.25
2023-01-03T23:17:23.581Z,101120.19
2023-01-03T23:19:50.476Z,101126.88
2023-01-03T23:22:17.512Z,101135.53
2023-01-03T23:24:44.444Z,101133.88
2023-01-03T23:27:11.350Z,101123.84
2023-01-03T23:29:38.199Z,101130.53
2023-01-03T23:32:05.351Z,101134.44
2023-01-03T23:34:32.421Z,101122.41
2023-01-03T23:36:59.328Z,101128.31
2023-01-03T23:39:26.232Z,101127.75
2023-01-03T23:41:53.162Z,101127.75
2023-01-03T23:44:20.081Z,101137.22
2023-01-03T23:46:47.011Z,101120.47
2023-01-03T23:49:13.966Z,101128.31
2023-01-03T23:51:40.855Z,101132.22
2023-01-03T23:54:08.341Z,101116.56
2023-01-03T23:56:35.123Z,101120.50
2023-01-03T23:59:02.285Z,101120.78
